Time;durP1;ratioP1;P1;durP2;ratioP2;P2;SDS_P1;SDS_P2;PMS_P1;PMS_P2;Temp;Humidity;BMP_temperature;BMP_pressure;BME280_temperature;BME280_humidity;BME280_pressure;Samples;Min_cycle;Max_cycle;Signal;HPM_P1;HPM_P2
2022/07/25 00:00:11;;;;;;;3.40;2.07;;;20.70;1.00;;;20.81;47.18;101037.41;5019166;28;20422;-74
2022/07/25 00:02:41;;;;;;;4.27;2.33;;;20.70;1.00;;;20.84;47.01;101036.03;5036239;28;20467;-74
2022/07/25 00:05:12;;;;;;;3.90;3.10;;;20.70;1.00;;;20.85;46.71;101034.94;5039053;28;20512;-73
2022/07/25 00:07:41;;;;;;;4.17;2.63;;;20.70;1.00;;;20.73;46.80;101032.38;5041997;28;20436;-73
2022/07/25 00:10:11;;;;;;;3.97;2.27;;;20.70;1.00;;;20.74;46.98;101030.47;5043306;28;20436;-74
2022/07/25 00:12:40;;;;;;;3.50;2.10;;;20.70;1.00;;;20.66;47.25;101023.56;5040884;28;20466;-72
2022/07/25 00:15:10;;;;;;;3.87;2.60;;;20.60;1.00;;;20.72;47.36;101027.19;5022641;28;20612;-72
2022/07/25 00:17:41;;;;;;;4.90;2.63;;;20.60;1.00;;;20.68;47.32;101021.34;5040533;28;20512;-72
2022/07/25 00:20:11;;;;;;;3.13;2.43;;;20.60;1.00;;;20.68;47.30;101020.53;5043152;28;20513;-73
2022/07/25 00:22:39;;;;;;;3.90;2.13;;;20.60;1.00;;;20.83;46.57;101006.84;5032251;28;20442;-74
2022/07/25 00:25:09;;;;;;;3.10;2.77;;;20.70;1.00;;;20.85;46.71;101009.34;5039029;28;20413;-74
2022/07/25 00:27:38;;;;;;;2.47;1.93;;;20.70;1.00;;;20.85;46.29;101003.84;5042681;28;20421;-74
2022/07/25 00:30:09;;;;;;;2.47;1.97;;;20.70;1.00;;;20.73;46.65;101001.31;5043077;28;20413;-73
2022/07/25 00:32:38;;;;;;;3.00;2.70;;;20.60;1.00;;;20.70;46.98;100999.09;5036022;28;20956;-72
2022/07/25 00:35:08;;;;;;;3.60;2.50;;;20.60;1.00;;;20.65;47.18;100999.91;5040200;28;20442;-74
2022/07/25 00:37:37;;;;;;;4.53;2.67;;;20.60;1.00;;;20.63;47.23;101001.25;5042852;28;20517;-74
2022/07/25 00:40:08;;;;;;;2.57;2.37;;;20.50;1.00;;;20.72;47.29;100999.66;5036827;28;21012;-72
2022/07/25 00:42:36;;;;;;;3.10;2.30;;;20.50;1.00;;;20.70;47.24;100996.34;5042110;28;20478;-73
2022/07/25 00:45:07;;;;;;;3.37;2.77;;;20.60;1.00;;;20.62;47.55;100999.63;5041192;28;20428;-75
2022/07/25 00:47:36;;;;;;;3.13;2.23;;;20.50;1.00;;;20.57;47.66;100996.84;5040137;28;20497;-74
2022/07/25 00:50:08;;;;;;;3.60;2.30;;;20.50;1.00;;;20.57;47.92;100991.34;5043075;28;20436;-72
2022/07/25 00:52:37;;;;;;;3.70;2.03;;;20.40;1.00;;;20.54;47.55;100981.69;5046163;28;20492;-73
2022/07/25 00:55:08;;;;;;;3.20;2.60;;;20.40;1.00;;;20.54;47.87;100984.44;5037616;28;20488;-72
2022/07/25 00:57:36;;;;;;;2.80;2.50;;;20.40;1.00;;;20.49;47.98;100984.41;5041120;28;20437;-73
2022/07/25 01:00:09;;;;;;;5.83;3.17;;;20.40;1.00;;;20.39;48.42;100979.66;5047733;28;20491;-73
2022/07/25 01:02:38;;;;;;;3.00;2.40;;;20.30;1.00;;;20.47;47.91;100974.78;5038092;28;20466;-73
2022/07/25 01:05:10;;;;;;;3.50;2.40;;;20.30;1.00;;;20.58;47.62;100979.22;5041167;28;20441;-74
2022/07/25 01:07:40;;;;;;;3.27;2.70;;;20.30;1.00;;;20.48;47.76;100979.97;5049130;28;20443;-72
2022/07/25 01:10:10;;;;;;;5.00;2.63;;;20.30;1.00;;;20.41;48.33;100982.16;5041099;28;20414;-72
2022/07/25 01:12:49;;;;;;;3.60;2.63;;;20.30;1.00;;;20.49;47.84;100978.06;5034224;28;20459;-72
2022/07/25 01:15:18;;;;;;;3.00;2.67;;;20.30;1.00;;;20.43;47.66;100977.19;5029179;28;20408;-74
2022/07/25 01:17:48;;;;;;;2.20;2.00;;;20.30;1.00;;;20.31;48.06;100980.16;5036430;28;20444;-73
2022/07/25 01:20:19;;;;;;;2.90;2.33;;;20.20;1.00;;;20.15;48.41;100967.38;5040997;28;20472;-74
2022/07/25 01:22:48;;;;;;;2.73;2.47;;;20.10;1.00;;;20.23;48.55;100977.06;5037001;28;20495;-74
2022/07/25 01:25:18;;;;;;;2.63;2.40;;;20.10;1.00;;;20.26;48.05;100971.03;5035538;28;20418;-74
2022/07/25 01:27:49;;;;;;;2.43;2.07;;;20.10;1.00;;;20.17;48.35;100967.94;5032752;28;20446;-73
2022/07/25 01:30:24;;;;;;;2.73;2.53;;;20.10;1.00;;;20.00;48.63;100964.50;5032423;28;20429;-74
2022/07/25 01:32:53;;;;;;;2.87;2.30;;;20.00;1.00;;;20.15;48.31;100961.03;5029844;28;20563;-72
2022/07/25 01:35:24;;;;;;;2.50;2.30;;;20.00;1.00;;;20.20;47.90;100950.91;5028387;28;20415;-75
2022/07/25 01:37:53;;;;;;;2.87;2.57;;;20.00;1.00;;;20.25;47.66;100956.44;5031045;28;20422;-74
2022/07/25 01:40:23;;;;;;;4.50;3.17;;;20.10;1.00;;;20.20;48.37;100953.66;5040856;28;20430;-74
2022/07/25 01:42:52;;;;;;;4.23;2.20;;;20.00;1.00;;;20.05;48.49;100950.81;5031177;28;20430;-73
2022/07/25 01:45:21;;;;;;;3.17;2.37;;;20.00;1.00;;;20.06;48.20;100948.91;5035973;28;20436;-75
2022/07/25 01:47:50;;;;;;;3.77;2.17;;;19.90;1.00;;;20.03;48.40;100941.19;5028020;28;20441;-73
2022/07/25 01:50:19;;;;;;;2.80;2.20;;;19.90;1.00;;;20.06;47.72;100944.22;5040089;28;20787;-75
2022/07/25 01:52:50;;;;;;;3.43;2.20;;;19.90;1.00;;;20.10;48.08;100941.78;5033341;28;20466;-74
2022/07/25 01:55:19;;;;;;;3.47;2.83;;;19.90;1.00;;;19.92;48.10;100941.13;5036475;28;20472;-74
2022/07/25 01:57:48;;;;;;;2.93;1.90;;;19.90;1.00;;;19.96;48.25;100938.66;5030760;28;20468;-74
2022/07/25 02:00:18;;;;;;;3.03;2.37;;;19.80;1.00;;;19.97;48.52;100940.31;5037453;28;20479;-75
2022/07/25 02:02:47;;;;;;;2.57;2.20;;;19.80;1.00;;;19.82;48.50;100941.03;5019602;28;20450;-74
2022/07/25 02:05:16;;;;;;;4.70;2.40;;;19.70;1.00;;;19.88;48.54;100928.16;5034340;28;20455;-74
2022/07/25 02:07:46;;;;;;;2.73;2.23;;;19.70;1.00;;;19.95;48.00;100931.50;5037737;28;20839;-73
2022/07/25 02:10:16;;;;;;;3.53;2.10;;;19.80;1.00;;;19.90;48.51;100925.97;5032504;28;20432;-72
2022/07/25 02:12:45;;;;;;;3.40;2.63;;;19.70;1.00;;;19.68;48.91;100917.84;5042510;28;20960;-74
2022/07/25 02:15:14;;;;;;;2.63;2.40;;;19.70;1.00;;;19.85;48.31;100918.53;5031730;28;20428;-74
2022/07/25 02:17:43;;;;;;;2.57;1.80;;;19.70;1.00;;;19.65;49.08;100923.03;5040393;28;20415;-75
2022/07/25 02:20:13;;;;;;;2.43;2.00;;;19.60;1.00;;;19.55;49.09;100922.94;5036482;28;20470;-74
2022/07/25 02:22:42;;;;;;;3.50;2.47;;;19.50;1.00;;;19.63;49.28;100915.06;5030386;28;20459;-74
2022/07/25 02:25:11;;;;;;;2.67;2.47;;;19.50;1.00;;;19.56;49.28;100914.44;5033909;28;20411;-75
2022/07/25 02:27:41;;;;;;;2.77;2.00;;;19.50;1.00;;;19.66;48.69;100913.69;5048326;28;20428;-73
2022/07/25 02:30:11;;;;;;;2.90;2.37;;;19.50;1.00;;;19.60;49.23;100904.63;5060112;28;20450;-73
2022/07/25 02:32:41;;;;;;;2.60;2.40;;;19.50;1.00;;;19.41;49.54;100901.38;5059794;28;20447;-75
2022/07/25 02:35:10;;;;;;;3.50;3.07;;;19.40;1.00;;;19.44;49.38;100900.06;5038542;28;20470;-73
2022/07/25 02:37:41;;;;;;;2.47;2.07;;;19.40;1.00;;;19.53;48.92;100903.97;5036312;28;20454;-75
2022/07/25 02:40:11;;;;;;;2.63;2.30;;;19.40;1.00;;;19.44;49.42;100900.06;5044914;28;20468;-75
2022/07/25 02:42:42;;;;;;;2.43;2.13;;;19.40;1.00;;;19.43;49.09;100888.22;5048208;28;20525;-73
2022/07/25 02:45:12;;;;;;;2.73;2.20;;;19.30;1.00;;;19.55;49.28;100885.34;5055542;28;20433;-75
2022/07/25 02:47:41;;;;;;;6.43;2.87;;;19.40;1.00;;;19.76;48.54;100889.06;5043515;28;20414;-75
2022/07/25 02:50:11;;;;;;;2.80;2.20;;;19.50;1.00;;;19.57;48.99;100887.81;5036487;28;20486;-74
2022/07/25 02:52:42;;;;;;;4.43;2.87;;;19.40;1.00;;;19.62;48.64;100885.13;5032877;28;20452;-72
2022/07/25 02:55:12;;;;;;;3.27;2.73;;;19.50;1.00;;;19.78;48.17;100884.16;5036062;28;20444;-74
2022/07/25 02:57:43;;;;;;;2.97;2.30;;;19.60;1.00;;;19.65;49.08;100879.94;5030835;28;20925;-73
2022/07/25 03:00:15;;;;;;;3.27;2.30;;;19.50;1.00;;;19.62;48.91;100879.63;5035484;28;20471;-74
2022/07/25 03:02:44;;;;;;;2.43;2.03;;;19.50;1.00;;;19.62;49.11;100879.63;5033954;28;20430;-74
2022/07/25 03:05:16;;;;;;;2.20;1.90;;;19.50;1.00;;;19.62;49.20;100879.63;5030724;28;20444;-74
2022/07/25 03:07:46;;;;;;;3.57;2.60;;;19.50;1.00;;;19.65;49.39;100879.13;5035004;28;20438;-73
2022/07/25 03:10:15;;;;;;;2.47;2.27;;;19.40;1.00;;;19.73;48.38;100875.88;5030742;28;20422;-74
2022/07/25 03:12:46;;;;;;;4.60;2.90;;;19.50;1.00;;;19.51;49.36;100875.97;5039151;28;20473;-75
2022/07/25 03:15:15;;;;;;;2.57;2.20;;;19.40;1.00;;;19.50;49.75;100872.41;5038353;28;20409;-73
2022/07/25 03:17:44;;;;;;;3.67;2.40;;;19.40;1.00;;;19.37;49.81;100867.31;5037322;28;20405;-74
2022/07/25 03:20:13;;;;;;;2.60;2.23;;;19.30;1.00;;;19.33;49.92;100860.69;5032287;28;20478;-74
2022/07/25 03:22:43;;;;;;;2.40;2.03;;;19.20;1.00;;;19.46;49.27;100863.03;5035874;28;20462;-73
2022/07/25 03:25:12;;;;;;;3.03;2.27;;;19.30;1.00;;;19.63;49.05;100860.16;5031258;28;21019;-74
2022/07/25 03:27:50;;;;;;;4.00;2.00;;;19.40;1.00;;;19.75;48.69;100857.22;5037545;28;20764;-74
2022/07/25 03:30:20;;;;;;;3.00;2.20;;;19.50;1.00;;;19.60;48.94;100851.63;5031971;28;20583;-75
2022/07/25 03:32:49;;;;;;;2.27;1.93;;;19.40;1.00;;;19.77;48.85;100849.53;5035302;28;20442;-73
2022/07/25 03:35:18;;;;;;;2.70;2.50;;;19.50;1.00;;;19.74;48.77;100855.56;5034915;28;20487;-75
2022/07/25 03:37:48;;;;;;;3.47;2.50;;;19.50;1.00;;;19.76;49.20;100848.72;5032457;28;20451;-73
2022/07/25 03:40:19;;;;;;;3.67;2.30;;;19.50;1.00;;;20.11;47.99;100845.38;5035296;28;20581;-76
2022/07/25 03:42:50;;;;;;;3.20;2.20;;;19.60;1.00;;;20.29;47.70;100853.16;5031487;28;21040;-73
2022/07/25 03:45:19;;;;;;;3.97;2.10;;;19.70;1.00;;;20.24;47.93;100844.88;5031867;28;20420;-74
2022/07/25 03:47:47;;;;;;;3.37;2.40;;;19.80;1.00;;;20.18;47.59;100840.47;5033010;28;20481;-74
2022/07/25 03:50:17;;;;;;;2.70;2.50;;;19.80;1.00;;;20.30;47.41;100841.09;5036246;28;20522;-74
2022/07/25 03:52:46;;;;;;;3.67;2.70;;;19.80;1.00;;;20.62;47.09;100837.41;5035556;28;20796;-74
2022/07/25 03:55:15;;;;;;;3.50;2.97;;;20.00;1.00;;;20.73;46.37;100844.56;5026301;28;20432;-75
2022/07/25 03:57:44;;;;;;;4.20;2.50;;;20.00;1.00;;;20.76;46.34;100841.28;5041654;28;20439;-74
2022/07/25 04:00:15;;;;;;;4.70;2.57;;;20.10;1.00;;;20.92;46.22;100844.88;5037220;28;20496;-74
2022/07/25 04:02:45;;;;;;;3.93;2.87;;;20.20;1.00;;;21.34;45.43;100836.47;5020319;28;20450;-74
2022/07/25 04:05:14;;;;;;;3.60;2.90;;;20.30;1.00;;;22.17;43.83;100832.25;5036004;28;21035;-74
2022/07/25 04:07:43;;;;;;;3.00;2.50;;;20.70;1.00;;;22.84;41.91;100828.94;5036494;28;20448;-74
2022/07/25 04:10:12;;;;;;;3.23;2.23;;;21.10;1.00;;;23.20;41.66;100825.91;5026198;28;20924;-73
2022/07/25 04:12:41;;;;;;;5.13;3.13;;;21.50;1.00;;;24.20;39.88;100828.91;5028968;28;20438;-74
2022/07/25 04:15:11;;;;;;;3.13;2.10;;;22.00;1.00;;;25.30;37.92;100820.19;5038342;28;20425;-74
2022/07/25 04:17:41;;;;;;;3.07;2.30;;;22.50;1.00;;;25.53;37.09;100824.78;5042086;28;20491;-74
2022/07/25 04:20:12;;;;;;;2.20;1.93;;;22.80;1.00;;;25.36;37.75;100818.97;5029212;28;20518;-73
2022/07/25 04:22:41;;;;;;;2.40;2.07;;;23.10;1.00;;;25.30;37.32;100820.19;5041201;28;20430;-72
2022/07/25 04:25:16;;;;;;;3.40;1.83;;;23.00;1.00;;;25.33;37.40;100814.03;5038470;28;20867;-74
2022/07/25 04:27:45;;;;;;;3.03;2.60;;;22.90;1.00;;;25.66;36.97;100814.06;5029913;28;20889;-73
2022/07/25 04:30:14;;;;;;;10.00;3.20;;;23.20;1.00;;;26.91;35.27;100809.88;5029422;28;20435;-75
2022/07/25 04:32:55;;;;;;;2.47;2.23;;;23.60;1.00;;;27.96;33.75;100813.88;5029591;28;20507;-75
2022/07/25 04:35:24;;;;;;;3.47;3.10;;;24.00;1.00;;;28.42;32.94;100815.38;5022477;28;20512;-74
2022/07/25 04:37:53;;;;;;;2.97;2.47;;;24.70;1.00;;;29.29;31.27;100805.97;5033778;28;20978;-75
2022/07/25 04:40:22;;;;;;;4.60;2.50;;;25.10;1.00;;;29.46;31.21;100799.59;5022510;28;20444;-72
2022/07/25 04:42:51;;;;;;;3.70;2.63;;;25.40;1.00;;;29.59;31.17;100788.25;5032525;28;20459;-74
2022/07/25 04:45:20;;;;;;;4.40;2.83;;;25.90;1.00;;;29.42;30.84;100788.28;5040538;28;20513;-74
2022/07/25 04:47:49;;;;;;;2.40;2.20;;;25.80;1.00;;;29.45;30.66;100782.03;5043081;28;20435;-74
2022/07/25 04:50:20;;;;;;;3.07;2.43;;;25.80;1.00;;;29.47;30.69;100767.78;5035457;28;20470;-74
2022/07/25 04:52:53;;;;;;;3.23;2.93;;;25.90;1.00;;;29.74;30.37;100762.59;5035162;28;20463;-74
2022/07/25 04:55:23;;;;;;;3.27;2.70;;;25.80;1.00;;;29.76;30.33;100754.72;5034300;28;20841;-73
2022/07/25 04:57:52;;;;;;;2.00;1.80;;;26.00;1.00;;;29.46;30.83;100750.22;5042029;28;20796;-74
2022/07/25 05:00:22;;;;;;;3.80;2.40;;;25.90;1.00;;;30.03;30.11;100741.50;5037429;28;20438;-74
2022/07/25 05:02:51;;;;;;;2.90;2.53;;;26.10;1.00;;;30.58;29.42;100747.75;5034674;28;20422;-75
2022/07/25 05:05:22;;;;;;;2.00;1.73;;;26.30;1.00;;;30.86;29.06;100741.63;5027256;28;20474;-74
2022/07/25 05:07:56;;;;;;;3.33;2.73;;;26.50;1.00;;;31.07;28.69;100748.03;5030789;28;20501;-74
2022/07/25 05:10:27;;;;;;;3.10;2.23;;;27.10;1.00;;;31.18;28.77;100749.22;5033049;28;20435;-75
2022/07/25 05:12:56;;;;;;;3.50;2.60;;;26.80;1.00;;;31.59;28.32;100741.91;5035343;28;20470;-73
2022/07/25 05:15:26;;;;;;;2.60;2.17;;;26.90;1.00;;;31.30;28.46;100740.91;5029234;28;20976;-73
2022/07/25 05:17:55;;;;;;;4.63;2.97;;;27.00;1.00;;;30.88;28.54;100744.91;5032866;28;20439;-74
2022/07/25 05:20:26;;;;;;;3.83;2.70;;;27.30;1.00;;;31.55;28.09;100735.34;5035029;28;20935;-74
2022/07/25 05:22:55;;;;;;;3.80;2.77;;;27.30;1.00;;;31.81;27.82;100738.69;5038651;28;20505;-74
2022/07/25 05:25:24;;;;;;;7.47;2.83;;;27.40;1.00;;;31.98;27.66;100732.03;5035150;28;20516;-74
2022/07/25 05:27:56;;;;;;;3.30;2.80;;;27.50;1.00;;;31.54;28.07;100737.34;5032609;28;20459;-72
2022/07/25 05:30:25;;;;;;;5.13;3.20;;;27.80;1.00;;;31.98;27.68;100732.03;5044173;28;20444;-74
2022/07/25 05:32:55;;;;;;;2.97;2.67;;;27.90;1.00;;;32.05;27.92;100741.47;5036909;28;20513;-75
2022/07/25 05:35:25;;;;;;;2.50;2.30;;;28.20;1.00;;;31.68;28.44;100734.25;5040610;28;20469;-75
2022/07/25 05:37:54;;;;;;;5.00;3.10;;;28.30;1.00;;;28.70;31.61;100733.22;5040743;28;20478;-73
2022/07/25 05:40:24;;;;;;;3.20;2.67;;;27.50;1.00;;;26.83;35.09;100725.31;5032091;28;20493;-72
2022/07/25 05:42:53;;;;;;;3.83;3.17;;;26.60;1.00;;;25.62;36.95;100727.09;5032013;28;20479;-74
2022/07/25 05:45:27;;;;;;;4.17;3.77;;;25.50;1.00;;;24.82;38.38;100724.59;5032701;28;20483;-75
2022/07/25 05:47:56;;;;;;;4.20;3.37;;;24.80;1.00;;;24.49;39.34;100726.47;5028598;28;21004;-74
2022/07/25 05:50:26;;;;;;;3.87;3.27;;;24.40;1.00;;;24.40;39.89;100726.31;5013564;28;20437;-74
2022/07/25 05:52:55;;;;;;;6.47;2.80;;;24.10;1.00;;;24.08;40.23;100720.63;5036288;28;20470;-74
2022/07/25 05:55:24;;;;;;;4.33;2.83;;;23.80;1.00;;;24.27;40.59;100727.03;5016614;28;20440;-74
2022/07/25 05:57:53;;;;;;;8.30;3.23;;;23.90;1.00;;;24.16;40.42;100719.97;5037775;28;20543;-73
2022/07/25 06:00:23;;;;;;;4.07;3.30;;;23.70;1.00;;;24.14;40.44;100722.22;5030826;28;20818;-73
2022/07/25 06:02:52;;;;;;;4.33;2.70;;;23.70;1.00;;;24.24;40.45;100716.59;5034754;28;20530;-75
2022/07/25 06:05:21;;;;;;;4.57;3.50;;;23.70;1.00;;;24.33;40.60;100717.56;5031886;28;20482;-73
2022/07/25 06:07:52;;;;;;;3.90;3.50;;;23.90;1.00;;;24.42;40.49;100718.53;5036997;28;20440;-73
2022/07/25 06:10:22;;;;;;;3.30;2.90;;;23.90;1.00;;;24.51;40.43;100713.97;5036727;28;20454;-75
2022/07/25 06:12:51;;;;;;;5.07;4.43;;;24.00;1.00;;;24.56;40.40;100702.84;5038441;28;20455;-73
2022/07/25 06:15:20;;;;;;;4.03;3.17;;;24.10;1.00;;;24.65;40.08;100705.75;5030688;28;21004;-73
2022/07/25 06:17:54;;;;;;;5.80;3.30;;;24.20;1.00;;;24.71;40.12;100689.88;5025568;28;20410;-74
2022/07/25 06:20:24;;;;;;;5.07;4.00;;;24.30;1.00;;;24.87;39.80;100688.56;5031591;28;20462;-73
2022/07/25 06:22:54;;;;;;;5.10;3.50;;;24.40;1.00;;;25.06;39.71;100692.94;5035942;28;20501;-73
2022/07/25 06:25:24;;;;;;;5.40;4.90;;;24.50;1.00;;;25.13;39.60;100686.97;5035415;28;20442;-74
2022/07/25 06:27:53;;;;;;;12.90;4.60;;;24.60;1.00;;;25.26;39.77;100683.44;5034945;28;20498;-74
2022/07/25 06:30:22;;;;;;;4.93;4.53;;;24.70;1.00;;;25.49;39.49;100679.69;5031169;28;20440;-75
2022/07/25 06:32:51;;;;;;;4.33;3.70;;;24.90;1.00;;;25.53;39.05;100680.69;5041837;28;20466;-71
2022/07/25 06:35:20;;;;;;;4.00;3.47;;;25.00;1.00;;;25.52;38.69;100679.03;5033205;28;20447;-71
2022/07/25 06:37:50;;;;;;;3.70;3.30;;;25.10;1.00;;;25.59;39.00;100667.59;5034067;28;20435;-71
2022/07/25 06:40:20;;;;;;;5.33;3.90;;;25.10;1.00;;;25.85;38.93;100662.38;5033786;28;20429;-72
2022/07/25 06:42:49;;;;;;;5.63;3.60;;;25.30;1.00;;;26.00;38.70;100667.56;5030488;28;20885;-71
2022/07/25 06:45:18;;;;;;;4.13;3.73;;;25.40;1.00;;;26.06;38.64;100666.31;5029882;28;20538;-72
2022/07/25 06:47:47;;;;;;;4.10;3.63;;;25.50;1.00;;;26.12;38.40;100654.00;5029664;28;20472;-71
2022/07/25 06:50:18;;;;;;;7.37;4.77;;;25.70;1.00;;;26.23;38.26;100662.94;5037889;28;20417;-71
2022/07/25 06:52:49;;;;;;;3.80;3.50;;;25.80;1.00;;;26.54;38.05;100657.47;5038147;28;20533;-71
2022/07/25 06:55:19;;;;;;;4.00;3.53;;;26.00;1.00;;;26.66;37.96;100654.97;5032222;28;21107;-69
2022/07/25 06:57:49;;;;;;;4.20;3.80;;;26.10;1.00;;;26.57;37.52;100654.09;5036519;28;20442;-69
2022/07/25 07:00:18;;;;;;;6.13;4.40;;;26.10;1.00;;;26.67;37.77;100653.84;5052463;28;20439;-70
2022/07/25 07:02:57;;;;;;;5.80;3.67;;;26.10;1.00;;;26.82;37.45;100653.44;5044267;28;20494;-71
2022/07/25 07:05:29;;;;;;;5.43;4.37;;;26.30;1.00;;;26.92;37.88;100644.88;5048073;28;20930;-71
2022/07/25 07:07:59;;;;;;;6.80;5.30;;;26.40;1.00;;;26.92;37.59;100638.50;5049848;28;20444;-70
2022/07/25 07:10:31;;;;;;;4.70;4.30;;;26.40;1.00;;;27.10;37.72;100641.09;5053763;28;20543;-71
2022/07/25 07:13:09;;;;;;;7.43;4.53;;;26.60;1.00;;;27.36;37.16;100632.06;5055601;28;20451;-71
2022/07/25 07:15:39;;;;;;;6.40;4.93;;;26.80;1.00;;;27.48;37.03;100630.31;5026415;28;20551;-72
2022/07/25 07:18:08;;;;;;;7.23;5.10;;;26.90;1.00;;;27.57;36.70;100622.88;5033210;28;20445;-72
2022/07/25 07:20:38;;;;;;;5.90;5.17;;;27.10;1.00;;;27.60;37.17;100615.81;5042739;28;20459;-71
2022/07/25 07:23:07;;;;;;;5.87;5.27;;;27.20;1.00;;;27.74;36.83;100613.72;5037970;28;20464;-71
2022/07/25 07:25:38;;;;;;;5.20;4.50;;;27.30;1.00;;;27.97;36.93;100614.44;5029865;28;20464;-71
2022/07/25 07:28:07;;;;;;;5.20;4.70;;;27.40;1.00;;;28.14;37.02;100613.66;5028158;28;20443;-71
2022/07/25 07:30:37;;;;;;;5.60;4.23;;;27.60;1.00;;;28.31;36.58;100608.13;5034587;28;21065;-71
2022/07/25 07:33:26;;;;;;;5.97;4.97;;;27.80;1.00;;;28.37;36.18;100606.81;5027900;28;20468;-71
2022/07/25 07:35:55;;;;;;;5.47;4.90;;;27.90;1.00;;;28.39;36.33;100612.88;5031332;28;20410;-71
2022/07/25 07:38:25;;;;;;;5.47;4.87;;;27.90;1.00;;;28.37;36.02;100604.03;5028864;28;20434;-71
2022/07/25 07:40:56;;;;;;;5.60;4.90;;;28.00;1.00;;;28.53;35.75;100602.38;5032838;28;20493;-71
2022/07/25 07:43:25;;;;;;;5.87;5.37;;;28.00;1.00;;;28.54;35.56;100590.09;5035632;28;20561;-72
2022/07/25 07:45:59;;;;;;;5.80;4.70;;;28.10;1.00;;;28.57;36.25;100592.22;5039554;28;20961;-71
2022/07/25 07:48:30;;;;;;;6.90;4.97;;;28.10;1.00;;;28.90;36.18;100586.97;5016003;28;20481;-71
2022/07/25 07:51:02;;;;;;;8.37;5.60;;;28.40;1.00;;;28.93;35.76;100594.63;5033086;28;20457;-71
2022/07/25 07:56:20;;;;;;;6.17;5.40;;;28.60;1.00;;;29.05;35.52;100583.59;5029702;28;20447;-71
2022/07/25 07:58:50;;;;;;;6.00;5.40;;;28.60;1.00;;;29.03;35.63;100585.09;5030717;28;20967;-72
2022/07/25 08:01:19;;;;;;;6.80;6.10;;;28.60;1.00;;;29.24;35.18;100575.66;5036846;28;20819;-72
2022/07/25 08:03:48;;;;;;;6.27;5.77;;;28.80;1.00;;;29.37;35.33;100587.78;5036251;28;20507;-72
2022/07/25 08:06:17;;;;;;;6.97;5.80;;;28.90;1.00;;;29.28;35.19;100581.41;5028376;28;20645;-72
2022/07/25 08:08:46;;;;;;;5.87;5.27;;;28.90;1.00;;;29.41;34.93;100574.81;5025224;28;20535;-71
2022/07/25 08:11:16;;;;;;;6.53;5.93;;;29.00;1.00;;;29.51;35.18;100580.00;5025594;28;20534;-72
2022/07/25 08:13:48;;;;;;;5.43;4.93;;;29.00;1.00;;;29.73;35.12;100571.31;5028339;28;20880;-70
2022/07/25 08:16:17;;;;;;;5.83;5.33;;;29.20;1.00;;;29.92;34.24;100568.09;5013244;28;20907;-72
2022/07/25 08:18:46;;;;;;;5.43;4.93;;;29.40;1.00;;;29.95;34.59;100566.63;5039729;28;20439;-72
2022/07/25 08:21:16;;;;;;;6.80;6.10;;;29.50;1.00;;;30.13;34.40;100570.91;5035298;28;20451;-72
2022/07/25 08:23:46;;;;;;;6.20;5.60;;;29.60;1.00;;;30.27;34.44;100563.06;5042101;28;20482;-71
2022/07/25 08:26:15;;;;;;;7.03;5.80;;;29.80;1.00;;;30.47;34.01;100556.66;5031988;28;20435;-70
2022/07/25 08:28:44;;;;;;;7.00;6.07;;;30.00;1.00;;;30.58;33.81;100563.47;5032409;28;20526;-71
2022/07/25 08:31:16;;;;;;;6.43;5.83;;;30.10;1.00;;;30.58;33.95;100557.88;5039036;28;20439;-72
2022/07/25 08:33:45;;;;;;;7.67;6.87;;;30.20;1.00;;;30.67;33.76;100559.75;5034490;28;20455;-72
2022/07/25 08:36:14;;;;;;;7.57;5.87;;;30.20;1.00;;;30.64;33.77;100550.88;5039671;28;20498;-72
2022/07/25 08:38:44;;;;;;;6.73;6.13;;;30.30;1.00;;;30.59;34.11;100553.94;5034990;28;20444;-71
2022/07/25 08:41:13;;;;;;;6.47;5.87;;;30.20;1.00;;;30.72;34.31;100551.16;5038021;28;20494;-71
2022/07/25 08:43:46;;;;;;;6.30;5.80;;;30.30;1.00;;;30.84;34.09;100554.00;5036204;28;20478;-71
2022/07/25 08:46:18;;;;;;;6.97;6.30;;;30.30;1.00;;;30.93;33.70;100563.91;5040954;28;20446;-71
2022/07/25 08:48:48;;;;;;;7.40;6.70;;;30.50;1.00;;;30.85;33.88;100561.19;5013377;28;20456;-72
2022/07/25 08:51:19;;;;;;;8.67;7.77;;;30.50;1.00;;;30.90;33.81;100552.56;5043531;28;20446;-71
2022/07/25 08:53:48;;;;;;;8.73;8.00;;;30.50;1.00;;;30.74;34.05;100549.66;5036024;28;20481;-70
2022/07/25 08:56:17;;;;;;;7.50;6.80;;;30.40;1.00;;;30.79;34.14;100545.81;5023005;28;20973;-72
2022/07/25 08:58:49;;;;;;;8.20;7.40;;;30.40;1.00;;;31.00;33.65;100540.94;5034538;28;20446;-71
2022/07/25 09:01:20;;;;;;;8.73;7.60;;;30.50;1.00;;;31.10;33.67;100540.53;5033887;28;20526;-71
2022/07/25 09:03:49;;;;;;;8.10;7.30;;;30.60;1.00;;;31.20;33.98;100531.69;5017354;28;20476;-71
2022/07/25 09:06:21;;;;;;;7.70;6.97;;;30.70;1.00;;;31.39;33.30;100526.31;5035504;28;20962;-72
2022/07/25 09:08:53;;;;;;;7.13;6.43;;;30.90;1.00;;;31.49;33.61;100525.03;5028238;28;20444;-71
2022/07/25 09:11:33;;;;;;;9.10;7.13;;;31.00;1.00;;;31.54;33.18;100522.00;5031545;28;20539;-71
2022/07/25 09:14:06;;;;;;;8.50;7.67;;;31.10;1.00;;;31.63;33.07;100516.28;5027307;28;20455;-71
2022/07/25 09:16:42;;;;;;;8.97;8.20;;;31.10;1.00;;;31.83;32.92;100509.72;5016064;28;20446;-74
2022/07/25 09:19:16;;;;;;;9.53;8.10;;;31.30;1.00;;;32.01;32.82;100508.25;5036097;28;20513;-73
2022/07/25 09:21:58;;;;;;;12.50;8.20;;;31.50;1.00;;;32.06;32.62;100515.59;5034455;28;20445;-73
2022/07/25 09:24:29;;;;;;;8.67;7.87;;;31.60;1.00;;;31.94;32.99;100508.06;5035066;28;20467;-74
2022/07/25 09:27:01;;;;;;;8.50;7.40;;;31.50;1.00;;;31.96;32.92;100505.72;5035075;28;20829;-73
2022/07/25 09:29:34;;;;;;;9.23;8.20;;;31.50;1.00;;;31.97;33.18;100498.94;5036664;28;20443;-73
2022/07/25 09:32:17;;;;;;;9.80;8.80;;;31.50;1.00;;;32.24;32.89;100481.34;5040351;28;20920;-73
2022/07/25 09:34:49;;;;;;;8.67;7.87;;;31.70;1.00;;;32.58;32.50;100487.50;5030211;28;20448;-73
2022/07/25 09:37:25;;;;;;;8.13;7.30;;;32.00;1.00;;;32.59;32.77;100475.09;5036912;28;20925;-74
2022/07/25 09:39:54;;;;;;;8.50;7.70;;;32.10;1.00;;;32.45;32.63;100474.72;5019745;28;20460;-74
2022/07/25 09:42:27;;;;;;;8.27;7.57;;;32.10;1.00;;;32.46;33.03;100473.56;5042560;28;20830;-74
2022/07/25 09:45:08;;;;;;;9.00;8.30;;;32.00;1.00;;;32.66;32.92;100473.34;5032513;28;21048;-74
2022/07/25 09:47:51;;;;;;;9.17;8.27;;;32.20;1.00;;;32.71;32.89;100461.88;5036873;28;20524;-73
2022/07/25 09:50:23;;;;;;;9.73;8.83;;;32.40;1.00;;;32.76;32.58;100455.19;5030940;28;20446;-73
2022/07/25 09:52:54;;;;;;;9.27;8.37;;;32.30;1.00;;;32.77;32.89;100457.59;5038218;28;20834;-74
2022/07/25 09:55:24;;;;;;;9.23;8.33;;;32.40;1.00;;;32.96;32.82;100459.69;5027562;28;20445;-74
2022/07/25 09:57:53;;;;;;;9.50;8.40;;;32.40;1.00;;;33.08;32.48;100456.78;5030861;28;20900;-73
2022/07/25 10:00:24;;;;;;;9.60;8.80;;;32.50;1.00;;;33.27;32.34;100435.59;5039010;28;20437;-73
2022/07/25 10:03:16;;;;;;;8.23;7.53;;;32.70;1.00;;;33.42;32.03;100441.16;5033544;28;20562;-73
2022/07/25 10:06:08;;;;;;;9.57;8.57;;;32.90;1.00;;;33.22;31.89;100436.69;5036526;28;20477;-74
2022/07/25 10:08:40;;;;;;;9.53;8.53;;;32.80;1.00;;;33.35;32.09;100434.59;5031406;28;20452;-73
2022/07/25 10:11:21;;;;;;;9.50;8.27;;;32.90;1.00;;;33.52;31.81;100426.56;5025850;28;20439;-73
2022/07/25 10:13:51;;;;;;;8.83;8.03;;;33.00;1.00;;;33.70;31.61;100421.34;5037360;28;20461;-73
2022/07/25 10:16:23;;;;;;;10.27;9.23;;;33.20;1.00;;;34.11;31.07;100424.56;5030522;28;20755;-73
2022/07/25 10:18:57;;;;;;;9.17;8.37;;;33.50;1.00;;;34.16;30.68;100410.22;5026756;28;20805;-74
2022/07/25 10:21:28;;;;;;;10.17;9.03;;;33.60;1.00;;;34.18;30.77;100416.34;5067299;22;20485;-73
2022/07/25 10:24:03;;;;;;;9.57;8.70;;;33.70;1.00;;;33.96;30.46;100409.44;5046395;28;20478;-74
2022/07/25 10:26:37;;;;;;;9.37;8.57;;;33.50;1.00;;;34.04;31.13;100406.41;5042076;28;20449;-75
2022/07/25 10:29:10;;;;;;;11.03;9.97;;;33.60;1.00;;;34.13;30.44;100399.75;5044115;28;20531;-73
2022/07/25 10:31:44;;;;;;;9.47;8.67;;;33.60;1.00;;;34.22;30.62;100391.94;5041134;28;20447;-74
2022/07/25 10:34:30;;;;;;;10.10;8.93;;;33.70;1.00;;;34.28;30.29;100390.41;5045823;28;21002;-73
2022/07/25 10:37:10;;;;;;;9.37;8.40;;;33.80;1.00;;;34.25;30.12;100394.78;5045088;28;20453;-73